createdAt,value
2023-06-30T00:04:49.084Z,41.8
2023-06-30T00:14:51.521Z,38.9
2023-06-30T00:24:53.925Z,40.6
2023-06-30T00:34:56.430Z,42.1
2023-06-30T00:44:58.790Z,52
2023-06-30T00:55:01.325Z,49.2
2023-06-30T01:05:03.384Z,42.1
2023-06-30T01:15:05.652Z,43.6
2023-06-30T01:25:09.075Z,40.2
2023-06-30T01:35:10.247Z,42.8
2023-06-30T01:45:12.226Z,45.8
2023-06-30T01:55:14.458Z,41.6
2023-06-30T02:05:16.572Z,39.2
2023-06-30T02:15:18.659Z,43.7
2023-06-30T02:25:20.708Z,42.2
2023-06-30T02:35:22.786Z,39.3
2023-06-30T02:45:24.804Z,44.7
2023-06-30T02:55:26.811Z,39.9
2023-06-30T03:05:28.842Z,37
2023-06-30T03:15:30.852Z,38.7
2023-06-30T03:25:32.921Z,42.1
2023-06-30T03:35:34.847Z,37.1
2023-06-30T03:45:37.620Z,35.6
2023-06-30T03:55:38.796Z,33.3
2023-06-30T04:05:40.786Z,38
2023-06-30T04:15:43.267Z,34.4
2023-06-30T04:25:45.064Z,35.4
2023-06-30T04:35:47.037Z,36
2023-06-30T04:45:48.837Z,39.7
2023-06-30T04:55:50.867Z,35.6
2023-06-30T05:05:53.795Z,31.4
2023-06-30T05:56:05.212Z,31.1
2023-06-30T06:06:04.711Z,34.1
2023-06-30T06:16:06.656Z,33.1
2023-06-30T06:26:11.203Z,31.4
2023-06-30T06:36:10.560Z,30.3
2023-06-30T06:46:12.749Z,35.2
2023-06-30T06:56:14.251Z,30.1
2023-06-30T07:16:18.065Z,31.2
2023-06-30T07:26:26.616Z,30.4
2023-06-30T07:36:21.892Z,31.7
2023-06-30T07:46:23.953Z,30
2023-06-30T07:56:25.775Z,31.3
2023-06-30T08:06:27.798Z,28.1
2023-06-30T08:16:29.791Z,28.7
2023-06-30T08:26:31.570Z,27.3
2023-06-30T08:36:33.446Z,28.6
2023-06-30T08:46:35.413Z,29.5
2023-06-30T08:56:37.238Z,29.5
2023-06-30T09:06:39.162Z,28.4
2023-06-30T09:16:41.076Z,28.2
2023-06-30T09:26:42.944Z,29.2
2023-06-30T09:36:44.747Z,28.8
2023-06-30T09:46:46.750Z,29
2023-06-30T09:56:48.529Z,28.1
2023-06-30T10:06:52.193Z,27.9
2023-06-30T10:16:52.137Z,25.5
2023-06-30T10:26:53.995Z,26
2023-06-30T10:36:56.025Z,27.1
2023-06-30T10:46:57.957Z,29.9
2023-06-30T10:56:59.842Z,25.6
2023-06-30T11:07:01.861Z,24.5
2023-06-30T11:17:04.051Z,27.1
2023-06-30T11:27:05.954Z,25.5
2023-06-30T11:37:08.736Z,25.8
2023-06-30T11:47:10.329Z,25.4
2023-06-30T11:57:12.573Z,24.3
2023-06-30T12:07:14.852Z,24.6
2023-06-30T12:17:16.839Z,24.4
2023-06-30T12:27:19.359Z,24.7
2023-06-30T12:37:21.767Z,26.6
2023-06-30T12:47:24.698Z,24.7
2023-06-30T12:57:27.831Z,25.5
2023-06-30T13:07:31.129Z,26.2
2023-06-30T13:17:34.662Z,26.1
2023-06-30T13:27:38.339Z,28.4
2023-06-30T13:37:41.935Z,26.6
2023-06-30T13:47:45.879Z,28.6
2023-06-30T13:57:49.231Z,30.8
2023-06-30T14:07:52.728Z,33.1
2023-06-30T14:17:56.149Z,34.7
2023-06-30T14:28:03.568Z,32.9
2023-06-30T14:32:48.207Z,32.9
2023-06-30T14:38:02.776Z,36.6
2023-06-30T14:48:06.095Z,36.2
2023-06-30T14:58:09.193Z,36.2
2023-06-30T15:08:13.571Z,36.9
2023-06-30T15:18:15.616Z,38.9
2023-06-30T15:28:22.643Z,40.3
2023-06-30T15:38:22.237Z,41.7
2023-06-30T15:48:25.246Z,41.8
2023-06-30T15:58:28.584Z,42.4
2023-06-30T16:08:31.755Z,46.2
2023-06-30T16:18:35.222Z,48.5
2023-06-30T16:28:38.371Z,47
2023-06-30T16:38:41.498Z,84.4
2023-06-30T16:48:45.054Z,43.7
2023-06-30T16:58:47.957Z,45.4
2023-06-30T17:08:51.466Z,40.9
2023-06-30T17:18:54.790Z,40.5
2023-06-30T17:28:58.087Z,40.9
2023-06-30T17:39:02.537Z,38.3
2023-06-30T17:49:08.708Z,43.7
2023-06-30T17:59:07.943Z,41
2023-06-30T18:09:11.418Z,43.6
2023-06-30T18:19:14.767Z,45.2
2023-06-30T18:29:18.224Z,42.3
2023-06-30T18:39:21.677Z,33.8
2023-06-30T18:49:25.026Z,32.7
2023-06-30T18:59:28.453Z,32.8
2023-06-30T19:09:31.864Z,31.6
2023-06-30T19:19:35.062Z,35.6
2023-06-30T19:29:38.153Z,32.7
2023-06-30T19:39:41.294Z,35.5
2023-06-30T19:49:45.714Z,34.6
2023-06-30T19:59:47.651Z,33.2
2023-06-30T20:09:51.936Z,33.9
2023-06-30T20:19:53.889Z,37.5
2023-06-30T20:29:56.898Z,35.8
2023-06-30T20:39:59.958Z,32
2023-06-30T20:50:04.351Z,30.2
2023-06-30T21:00:06.095Z,36
2023-06-30T21:10:09.094Z,36.8
2023-06-30T21:20:12.332Z,34
2023-06-30T21:30:15.577Z,38.6
2023-06-30T21:40:18.264Z,37.8
2023-06-30T21:50:21.246Z,36.7
2023-06-30T22:00:24.280Z,34.7
2023-06-30T22:10:27.162Z,34.7
2023-06-30T22:20:30.312Z,32.5
2023-06-30T22:30:33.204Z,32.3
2023-06-30T22:40:36.089Z,30.2
2023-06-30T22:50:39.164Z,31
2023-06-30T23:00:41.920Z,28.5
2023-06-30T23:10:44.841Z,26.9
2023-06-30T23:20:47.503Z,30.6
2023-06-30T23:30:50.133Z,29.4
2023-06-30T23:40:52.659Z,28.5
2023-06-30T23:50:55.112Z,27
